Horizon Reliance — WFLH — position and weather

sailwx.info

Track history (hours):
 
Tides and Currents Weather Stations Pressure Air Temp Water Temp Dewpoint Dewpoint Depression Visibility Wind Speed Wind Dir Waves Ship Positions

Horizon Reliance

Owner: Marine Transport Management, Inc, Jacksonville, FL. More information available from US FCC via Universal Licensing System and Coast Guard Vessel Documentation Center.

Last reported at 2018-Feb-09 07:30 UTC. Time now 2018-Feb-25 11:44 UTC.
Position N 45°34' W 122°43'.
Warning: this ship's position is 16 days out of date.

Type: Cargo ship. MMSI: 366791000.

Date/timePositionNaut miles runAvg speedWind from/ knotsBaromVisibWave heightAir tempDewpointWater temp
2018-Feb-09 07:30N 45°34' W 122°43'8 4.0
2018-Feb-09 05:30N 45°42' W 122°46'612.2
2018-Feb-09 05:00N 45°48' W 122°47'1610.5
2018-Feb-09 03:30N 46°03' W 122°53'1110.8
2018-Feb-09 02:31N 46°10' W 123°05'611.6
2018-Feb-09 02:00N 46°10' W 123°13'612.4
2018-Feb-09 01:30N 46°09' W 123°22'20 9.8
2018-Feb-08 23:31N 46°12' W 123°50'5 9.7
2018-Feb-08 23:00N 46°12' W 123°57'1111.3
2018-Feb-08 22:00N 46°11' W 124°13'5 4.9
2018-Feb-08 21:00N 46°06' W 124°17'1312.6
2018-Feb-08 20:00N 45°54' W 124°21'917.6
2018-Feb-08 19:30N 45°46' W 124°23'917.9
2018-Feb-08 19:00N 45°37' W 124°26'61216.9
2018-Feb-07 06:43N 35°36' W 121°52'1317.6
2018-Feb-07 06:00N 35°26' W 121°43'1717.4
2018-Feb-07 05:00N 35°12' W 121°31'917.4
2018-Feb-07 04:30N 35°04' W 121°25'917.1
2018-Feb-07 04:00N 34°57' W 121°20'917.3
2018-Feb-07 03:30N 34°50' W 121°13'917.4
2018-Feb-07 03:00N 34°43' W 121°07'917.4
2018-Feb-07 02:30N 34°36' W 121°01'1616.1
2018-Feb-07 01:29N 34°25' W 120°47'917.1
2018-Feb-07 00:59N 34°23' W 120°36'817.3
2018-Feb-07 00:30N 34°20' W 120°27'917.5
2018-Feb-06 23:58N 34°18' W 120°16'917.9
2018-Feb-06 23:29N 34°15' W 120°06'817.8
2018-Feb-06 23:00N 34°13' W 119°56'917.6
2018-Feb-06 22:30N 34°11' W 119°45'917.0
2018-Feb-06 22:00N 34°09' W 119°36'917.1
2018-Feb-06 21:30N 34°07' W 119°26'917.5
2018-Feb-06 21:00N 34°04' W 119°15'816.8
2018-Feb-06 20:30N 34°00' W 119°07'917.2
2018-Feb-06 20:00N 33°56' W 118°58'917.1
2018-Feb-06 19:30N 33°52' W 118°49'816.9
2018-Feb-06 19:00N 33°47' W 118°40'916.9
2018-Feb-06 18:29N 33°43' W 118°31'816.7
2018-Feb-06 18:00N 33°39' W 118°22'510.9
2018-Feb-06 17:30N 33°40' W 118°16'6 2.2
2018-Feb-06 14:59N 33°46' W 118°17'0 0.0
2018-Feb-06 14:29N 33°46' W 118°17'0 0.0
2018-Feb-06 13:59N 33°46' W 118°17'0 0.0
2018-Feb-06 13:29N 33°46' W 118°17'0 0.0
2018-Feb-06 12:59N 33°46' W 118°17'0 0.0
2018-Feb-06 12:29N 33°46' W 118°17'0 0.0
2018-Feb-06 11:59N 33°46' W 118°17'0 0.0
2018-Feb-06 11:23N 33°46' W 118°17'0 0.0
2018-Feb-06 10:59N 33°46' W 118°17'0 0.0
2018-Feb-06 10:29N 33°46' W 118°17'0 0.0
2018-Feb-06 09:59N 33°46' W 118°17'0 0.0
2018-Feb-06 09:29N 33°46' W 118°17'0 0.0
2018-Feb-06 08:56N 33°46' W 118°17'0 0.0
2018-Feb-06 08:29N 33°46' W 118°17'0 0.0
2018-Feb-06 07:59N 33°46' W 118°17'0 0.0
2018-Feb-06 07:29N 33°46' W 118°17'0 0.0
2018-Feb-06 06:59N 33°46' W 118°17'0 0.0
2018-Feb-06 06:29N 33°46' W 118°17'0 0.0
2018-Feb-06 05:59N 33°46' W 118°17'0 0.0
2018-Feb-06 05:29N 33°46' W 118°17'0 0.0
2018-Feb-06 04:59N 33°46' W 118°17'0 0.0
2018-Feb-06 04:29N 33°46' W 118°17'0 0.0
2018-Feb-06 03:59N 33°46' W 118°17'0 0.0
2018-Feb-06 03:29N 33°46' W 118°17'0 0.0
2018-Feb-06 02:59N 33°46' W 118°17'0 0.0
2018-Feb-06 02:29N 33°46' W 118°17'0 0.0
2018-Feb-06 01:53N 33°46' W 118°17'0 0.0
2018-Feb-06 01:29N 33°46' W 118°17'0 0.0
2018-Feb-06 00:59N 33°46' W 118°17'0 0.0
2018-Feb-06 00:26N 33°46' W 118°17'0 0.0
2018-Feb-05 23:59N 33°46' W 118°17'0 0.0
2018-Feb-05 23:29N 33°46' W 118°17'0 0.0
2018-Feb-05 22:59N 33°46' W 118°17'0 0.0
2018-Feb-05 22:29N 33°46' W 118°17'0 0.0
2018-Feb-05 21:59N 33°46' W 118°17'0 0.0
2018-Feb-05 21:29N 33°46' W 118°17'0 0.0
2018-Feb-05 20:59N 33°46' W 118°17'0 0.0
2018-Feb-05 20:29N 33°46' W 118°17'0 0.1
2018-Feb-05 20:00N 33°46' W 118°17'1 1.2
2018-Feb-05 19:30N 33°45' W 118°16'2 4.1
2018-Feb-05 19:00N 33°43' W 118°16'4 7.3
2018-Feb-05 18:30N 33°39' W 118°15'8 7.7
2018-Feb-05 17:30N 33°36' W 118°23'5 9.9
2018-Feb-05 17:00N 33°34' W 118°29'510.4
2018-Feb-05 16:30N 33°32' W 118°35'611.0
2018-Feb-05 16:00N 33°30' W 118°41'611.3
2018-Feb-05 15:30N 33°27' W 118°46'611.3
2018-Feb-05 15:00N 33°24' W 118°52'611.1
2018-Feb-05 14:30N 33°21' W 118°58'611.2
2018-Feb-05 14:00N 33°19' W 119°04'713.6
2018-Feb-05 13:30N 33°15' W 119°11'713.7
2018-Feb-05 13:00N 33°12' W 119°18'713.7
2018-Feb-05 12:30N 33°08' W 119°25'713.6
2018-Feb-05 12:00N 33°07' W 119°33'713.6
2018-Feb-05 11:30N 33°05' W 119°41'713.7
2018-Feb-05 11:00N 33°04' W 119°49'2113.7
2018-Feb-05 09:30N 33°01' W 120°13'713.4
2018-Feb-05 09:00N 32°60' W 120°21'713.4
2018-Feb-05 08:30N 32°58' W 120°29'714.0
2018-Feb-05 07:58N 32°57' W 120°38'714.2
2018-Feb-05 07:30N 32°56' W 120°45'714.0
2018-Feb-05 07:00N 32°55' W 120°54'713.9
2018-Feb-05 06:29N 32°53' W 121°02'2113.9
2018-Feb-05 04:57N 32°50' W 121°27'714.0
2018-Feb-05 04:29N 32°48' W 121°35'714.0
2018-Feb-05 03:58N 32°47' W 121°43'713.9
2018-Feb-05 03:30N 32°46' W 121°51'913.8
2018-Feb-05 02:52N 32°44' W 122°01'5414.1
2018-Feb-04 23:01N 32°34' W 123°04'214.1
2018-Feb-04 22:54N 32°33' W 123°06'514.0
2018-Feb-04 22:31N 32°32' W 123°12'1014.1
2018-Feb-04 21:50N 32°30' W 123°23'  
Track history (hours):
 
Tides and Currents Weather Stations Pressure Air Temp Water Temp Dewpoint Dewpoint Depression Visibility Wind Speed Wind Dir Waves Ship Positions

Horizon Reliance

Owner: Marine Transport Management, Inc, Jacksonville, FL. More information available from US FCC via Universal Licensing System and Coast Guard Vessel Documentation Center.

Last reported at 2018-Feb-09 07:30 UTC. Time now 2018-Feb-25 11:44 UTC.
Position N 45°34' W 122°43'.
Warning: this ship's position is 16 days out of date.

Type: Cargo ship. MMSI: 366791000.

Date/timePositionNaut miles runAvg speedWind from/ knotsBaromVisibWave heightAir tempDewpointWater temp
2018-Feb-09 07:30N 45°34' W 122°43'8 4.0
2018-Feb-09 05:30N 45°42' W 122°46'612.2
2018-Feb-09 05:00N 45°48' W 122°47'1610.5
2018-Feb-09 03:30N 46°03' W 122°53'1110.8
2018-Feb-09 02:31N 46°10' W 123°05'611.6
2018-Feb-09 02:00N 46°10' W 123°13'612.4
2018-Feb-09 01:30N 46°09' W 123°22'20 9.8
2018-Feb-08 23:31N 46°12' W 123°50'5 9.7
2018-Feb-08 23:00N 46°12' W 123°57'1111.3
2018-Feb-08 22:00N 46°11' W 124°13'5 4.9
2018-Feb-08 21:00N 46°06' W 124°17'1312.6
2018-Feb-08 20:00N 45°54' W 124°21'917.6
2018-Feb-08 19:30N 45°46' W 124°23'917.9
2018-Feb-08 19:00N 45°37' W 124°26'61216.9
2018-Feb-07 06:43N 35°36' W 121°52'1317.6
2018-Feb-07 06:00N 35°26' W 121°43'1717.4
2018-Feb-07 05:00N 35°12' W 121°31'917.4
2018-Feb-07 04:30N 35°04' W 121°25'917.1
2018-Feb-07 04:00N 34°57' W 121°20'917.3
2018-Feb-07 03:30N 34°50' W 121°13'917.4
2018-Feb-07 03:00N 34°43' W 121°07'917.4
2018-Feb-07 02:30N 34°36' W 121°01'1616.1
2018-Feb-07 01:29N 34°25' W 120°47'917.1
2018-Feb-07 00:59N 34°23' W 120°36'817.3
2018-Feb-07 00:30N 34°20' W 120°27'917.5
2018-Feb-06 23:58N 34°18' W 120°16'917.9
2018-Feb-06 23:29N 34°15' W 120°06'817.8
2018-Feb-06 23:00N 34°13' W 119°56'917.6
2018-Feb-06 22:30N 34°11' W 119°45'917.0
2018-Feb-06 22:00N 34°09' W 119°36'917.1
2018-Feb-06 21:30N 34°07' W 119°26'917.5
2018-Feb-06 21:00N 34°04' W 119°15'816.8
2018-Feb-06 20:30N 34°00' W 119°07'917.2
2018-Feb-06 20:00N 33°56' W 118°58'917.1
2018-Feb-06 19:30N 33°52' W 118°49'816.9
2018-Feb-06 19:00N 33°47' W 118°40'916.9
2018-Feb-06 18:29N 33°43' W 118°31'816.7
2018-Feb-06 18:00N 33°39' W 118°22'510.9
2018-Feb-06 17:30N 33°40' W 118°16'6 2.2
2018-Feb-06 14:59N 33°46' W 118°17'0 0.0
2018-Feb-06 14:29N 33°46' W 118°17'0 0.0
2018-Feb-06 13:59N 33°46' W 118°17'0 0.0
2018-Feb-06 13:29N 33°46' W 118°17'0 0.0
2018-Feb-06 12:59N 33°46' W 118°17'0 0.0
2018-Feb-06 12:29N 33°46' W 118°17'0 0.0
2018-Feb-06 11:59N 33°46' W 118°17'0 0.0
2018-Feb-06 11:23N 33°46' W 118°17'0 0.0
2018-Feb-06 10:59N 33°46' W 118°17'0 0.0
2018-Feb-06 10:29N 33°46' W 118°17'0 0.0
2018-Feb-06 09:59N 33°46' W 118°17'0 0.0
2018-Feb-06 09:29N 33°46' W 118°17'0 0.0
2018-Feb-06 08:56N 33°46' W 118°17'0 0.0
2018-Feb-06 08:29N 33°46' W 118°17'0 0.0
2018-Feb-06 07:59N 33°46' W 118°17'0 0.0
2018-Feb-06 07:29N 33°46' W 118°17'0 0.0
2018-Feb-06 06:59N 33°46' W 118°17'0 0.0
2018-Feb-06 06:29N 33°46' W 118°17'0 0.0
2018-Feb-06 05:59N 33°46' W 118°17'0 0.0
2018-Feb-06 05:29N 33°46' W 118°17'0 0.0
2018-Feb-06 04:59N 33°46' W 118°17'0 0.0
2018-Feb-06 04:29N 33°46' W 118°17'0 0.0
2018-Feb-06 03:59N 33°46' W 118°17'0 0.0
2018-Feb-06 03:29N 33°46' W 118°17'0 0.0
2018-Feb-06 02:59N 33°46' W 118°17'0 0.0
2018-Feb-06 02:29N 33°46' W 118°17'0 0.0
2018-Feb-06 01:53N 33°46' W 118°17'0 0.0
2018-Feb-06 01:29N 33°46' W 118°17'0 0.0
2018-Feb-06 00:59N 33°46' W 118°17'0 0.0
2018-Feb-06 00:26N 33°46' W 118°17'0 0.0
2018-Feb-05 23:59N 33°46' W 118°17'0 0.0
2018-Feb-05 23:29N 33°46' W 118°17'0 0.0
2018-Feb-05 22:59N 33°46' W 118°17'0 0.0
2018-Feb-05 22:29N 33°46' W 118°17'0 0.0
2018-Feb-05 21:59N 33°46' W 118°17'0 0.0
2018-Feb-05 21:29N 33°46' W 118°17'0 0.0
2018-Feb-05 20:59N 33°46' W 118°17'0 0.0
2018-Feb-05 20:29N 33°46' W 118°17'0 0.1
2018-Feb-05 20:00N 33°46' W 118°17'1 1.2
2018-Feb-05 19:30N 33°45' W 118°16'2 4.1
2018-Feb-05 19:00N 33°43' W 118°16'4 7.3
2018-Feb-05 18:30N 33°39' W 118°15'8 7.7
2018-Feb-05 17:30N 33°36' W 118°23'5 9.9
2018-Feb-05 17:00N 33°34' W 118°29'510.4
2018-Feb-05 16:30N 33°32' W 118°35'611.0
2018-Feb-05 16:00N 33°30' W 118°41'611.3
2018-Feb-05 15:30N 33°27' W 118°46'611.3
2018-Feb-05 15:00N 33°24' W 118°52'611.1
2018-Feb-05 14:30N 33°21' W 118°58'611.2
2018-Feb-05 14:00N 33°19' W 119°04'713.6
2018-Feb-05 13:30N 33°15' W 119°11'713.7
2018-Feb-05 13:00N 33°12' W 119°18'713.7
2018-Feb-05 12:30N 33°08' W 119°25'713.6
2018-Feb-05 12:00N 33°07' W 119°33'713.6
2018-Feb-05 11:30N 33°05' W 119°41'713.7
2018-Feb-05 11:00N 33°04' W 119°49'2113.7
2018-Feb-05 09:30N 33°01' W 120°13'713.4
2018-Feb-05 09:00N 32°60' W 120°21'713.4
2018-Feb-05 08:30N 32°58' W 120°29'714.0
2018-Feb-05 07:58N 32°57' W 120°38'714.2
2018-Feb-05 07:30N 32°56' W 120°45'714.0
2018-Feb-05 07:00N 32°55' W 120°54'713.9
2018-Feb-05 06:29N 32°53' W 121°02'2113.9
2018-Feb-05 04:57N 32°50' W 121°27'714.0
2018-Feb-05 04:29N 32°48' W 121°35'714.0
2018-Feb-05 03:58N 32°47' W 121°43'713.9
2018-Feb-05 03:30N 32°46' W 121°51'913.8
2018-Feb-05 02:52N 32°44' W 122°01'5414.1
2018-Feb-04 23:01N 32°34' W 123°04'214.1
2018-Feb-04 22:54N 32°33' W 123°06'514.0
2018-Feb-04 22:31N 32°32' W 123°12'1014.1
2018-Feb-04 21:50N 32°30' W 123°23'  

Dump ship's entire track history